createdAt,value
2022-12-23T00:01:08.256Z,48.50
2022-12-23T00:06:14.216Z,44.45
2022-12-23T00:11:20.122Z,47.50
2022-12-23T00:16:25.039Z,49.20
2022-12-23T00:21:28.628Z,47.75
2022-12-23T00:26:32.137Z,44.33
2022-12-23T00:31:37.395Z,44.40
2022-12-23T00:36:41.104Z,46.78
2022-12-23T00:42:02.512Z,55.40
2022-12-23T00:47:07.437Z,57.47
2022-12-23T00:52:13.836Z,50.47
2022-12-23T00:57:17.478Z,46.05
2022-12-23T01:02:40.260Z,44.10
2022-12-23T01:07:43.864Z,50.75
2022-12-23T01:12:47.380Z,48.42
2022-12-23T01:17:52.282Z,48.85
2022-12-23T01:22:55.792Z,44.80
2022-12-23T01:27:59.307Z,49.00
2022-12-23T01:33:04.885Z,46.22
2022-12-23T01:38:08.441Z,39.95
2022-12-23T01:43:16.274Z,38.42
2022-12-23T01:48:25.985Z,41.58
2022-12-23T01:53:32.769Z,47.10
2022-12-23T01:58:39.264Z,44.38
2022-12-23T02:03:45.024Z,51.03
2022-12-23T02:09:06.337Z,47.45
2022-12-23T02:20:15.219Z,46.72
2022-12-23T02:25:43.400Z,46.75
2022-12-23T02:30:55.652Z,45.10
2022-12-23T02:36:08.081Z,39.28
2022-12-23T02:41:21.216Z,49.20
2022-12-23T02:46:33.723Z,46.25
2022-12-23T02:51:43.118Z,45.78
2022-12-23T02:56:50.962Z,56.33
2022-12-23T03:01:56.683Z,60.83
2022-12-23T03:07:07.209Z,54.47
2022-12-23T03:12:18.536Z,60.63
2022-12-23T03:17:34.952Z,49.97
2022-12-23T03:22:45.462Z,63.58
2022-12-23T03:27:53.647Z,44.75
2022-12-23T03:33:05.799Z,68.03
2022-12-23T03:38:12.828Z,58.38
2022-12-23T03:43:21.686Z,59.15
2022-12-23T03:48:33.924Z,42.55
2022-12-23T03:53:43.310Z,33.35
2022-12-23T03:58:53.723Z,36.42
2022-12-23T04:04:04.698Z,28.97
2022-12-23T04:09:09.014Z,27.75
2022-12-23T04:14:18.131Z,26.60
2022-12-23T04:19:23.418Z,26.98
2022-12-23T04:24:26.979Z,28.48
2022-12-23T04:29:30.557Z,26.55
2022-12-23T04:34:35.486Z,21.65
2022-12-23T04:39:39.072Z,25.02
2022-12-23T04:44:42.499Z,28.92
2022-12-23T04:49:47.476Z,35.17
2022-12-23T04:54:51.043Z,33.22
2022-12-23T04:59:54.525Z,35.08
2022-12-23T05:04:59.383Z,30.38
2022-12-23T05:10:02.915Z,32.03
2022-12-23T05:15:07.430Z,32.42
2022-12-23T05:20:12.884Z,36.20
2022-12-23T05:25:16.635Z,34.40
2022-12-23T05:30:20.230Z,33.05
2022-12-23T05:35:26.653Z,35.30
2022-12-23T05:40:31.644Z,35.08
2022-12-23T05:45:36.477Z,30.33
2022-12-23T05:50:41.454Z,26.63
2022-12-23T05:55:44.976Z,26.50
2022-12-23T06:00:48.476Z,25.15
2022-12-23T06:05:54.545Z,23.95
2022-12-23T06:10:59.922Z,27.50
2022-12-23T06:16:03.585Z,29.42
2022-12-23T06:21:08.581Z,20.95
2022-12-23T06:26:12.064Z,22.65
2022-12-23T06:31:16.361Z,21.60
2022-12-23T06:36:21.581Z,18.88
2022-12-23T06:41:25.171Z,20.70
2022-12-23T06:46:28.697Z,19.20
2022-12-23T06:51:33.715Z,19.90
2022-12-23T06:56:37.247Z,22.50
2022-12-23T07:01:41.378Z,18.05
2022-12-23T07:06:46.451Z,22.65
2022-12-23T07:11:51.158Z,20.73
2022-12-23T07:16:54.943Z,16.98
2022-12-23T07:21:59.848Z,20.00
2022-12-23T07:27:03.392Z,18.00
2022-12-23T07:32:06.994Z,21.05
2022-12-23T07:37:12.105Z,20.27
2022-12-23T07:42:43.553Z,18.90
2022-12-23T07:47:39.705Z,18.20
2022-12-23T07:52:44.582Z,23.17
2022-12-23T07:57:49.527Z,17.85
2022-12-23T08:02:53.170Z,20.27
2022-12-23T08:07:58.467Z,18.95
2022-12-23T08:13:02.323Z,18.45
2022-12-23T08:18:06.692Z,23.27
2022-12-23T08:23:13.021Z,21.48
2022-12-23T08:28:16.836Z,18.30
2022-12-23T08:33:20.498Z,18.17
2022-12-23T08:38:25.581Z,19.55
2022-12-23T08:43:35.553Z,21.67
2022-12-23T08:48:45.118Z,16.80
2022-12-23T08:54:00.212Z,26.80
2022-12-23T08:59:05.460Z,29.58
2022-12-23T09:04:09.563Z,39.47
2022-12-23T09:09:16.727Z,33.55
2022-12-23T09:14:20.432Z,39.40
2022-12-23T09:19:23.977Z,43.53
2022-12-23T09:24:29.169Z,45.42
2022-12-23T09:29:33.035Z,47.95
2022-12-23T09:34:36.733Z,51.17
2022-12-23T09:39:41.908Z,53.25
2022-12-23T09:45:10.524Z,62.60
2022-12-23T09:50:22.883Z,55.53
2022-12-23T09:55:34.929Z,57.25
2022-12-23T10:00:44.204Z,47.08
2022-12-23T10:05:58.406Z,52.08
2022-12-23T10:11:08.737Z,56.05
2022-12-23T10:16:17.926Z,38.00
2022-12-23T10:21:31.111Z,52.65
2022-12-23T10:26:42.898Z,52.40
2022-12-23T10:32:08.278Z,54.10
2022-12-23T10:37:18.680Z,51.70
2022-12-23T10:42:32.512Z,61.67
2022-12-23T10:47:49.516Z,52.45
2022-12-23T10:52:56.964Z,53.92
2022-12-23T10:58:08.091Z,48.22
2022-12-23T11:08:22.924Z,61.22
2022-12-23T11:13:37.510Z,72.20
2022-12-23T11:18:54.483Z,82.57
2022-12-23T11:24:17.235Z,85.38
2022-12-23T11:29:26.905Z,83.20
2022-12-23T11:34:36.706Z,89.38
2022-12-23T11:39:48.046Z,90.57
2022-12-23T11:44:55.955Z,79.03
2022-12-23T11:50:01.207Z,82.15
2022-12-23T11:55:08.436Z,72.80
2022-12-23T12:00:22.571Z,70.15
2022-12-23T12:05:32.209Z,63.13
2022-12-23T12:10:39.437Z,78.03
2022-12-23T12:15:48.330Z,70.90
2022-12-23T12:20:57.030Z,65.93
2022-12-23T12:26:04.855Z,62.58
2022-12-23T12:31:23.274Z,61.28
2022-12-23T12:36:38.096Z,60.70
2022-12-23T12:41:52.253Z,60.65
2022-12-23T12:47:28.174Z,60.60
2022-12-23T12:52:29.486Z,58.63
2022-12-23T12:57:36.295Z,48.65
2022-12-23T13:03:05.821Z,53.28
2022-12-23T13:08:24.516Z,49.67
2022-12-23T13:13:39.567Z,51.25
2022-12-23T13:18:54.159Z,53.65
2022-12-23T13:24:05.739Z,44.35
2022-12-23T13:29:57.560Z,44.25
2022-12-23T13:35:13.659Z,50.17
2022-12-23T13:40:32.477Z,40.05
2022-12-23T13:45:39.958Z,38.92
2022-12-23T13:50:52.250Z,42.78
2022-12-23T13:56:10.050Z,40.10
2022-12-23T14:01:34.303Z,37.45
2022-12-23T14:06:46.400Z,48.08
2022-12-23T14:12:02.672Z,49.15
2022-12-23T14:17:16.501Z,48.08
2022-12-23T14:22:52.091Z,51.90
2022-12-23T14:28:02.475Z,50.85
2022-12-23T14:33:17.197Z,45.60
2022-12-23T14:38:27.949Z,39.42
2022-12-23T14:43:52.942Z,41.15
2022-12-23T14:49:39.175Z,38.65
2022-12-23T14:55:00.364Z,39.65
2022-12-23T15:00:11.448Z,39.25
2022-12-23T15:05:15.011Z,42.22
2022-12-23T15:10:23.314Z,49.45
2022-12-23T15:15:29.218Z,42.13
2022-12-23T15:20:33.196Z,48.50
2022-12-23T15:25:42.025Z,37.95
2022-12-23T15:30:50.005Z,40.78
2022-12-23T15:35:54.152Z,39.00
2022-12-23T15:41:01.330Z,36.60
2022-12-23T15:46:10.740Z,35.50
2022-12-23T15:51:36.569Z,39.30
2022-12-23T15:56:47.803Z,31.15
2022-12-23T16:01:52.976Z,28.60
2022-12-23T16:06:57.273Z,32.63
2022-12-23T16:12:05.552Z,29.85
2022-12-23T16:17:24.918Z,33.65
2022-12-23T16:22:31.227Z,65.15
2022-12-23T16:27:39.941Z,32.60
2022-12-23T16:32:51.003Z,33.92
2022-12-23T16:37:58.546Z,39.78
2022-12-23T16:43:03.869Z,42.33
2022-12-23T16:48:11.614Z,37.65
2022-12-23T16:53:15.789Z,35.72
2022-12-23T16:58:20.862Z,43.80
2022-12-23T17:03:24.707Z,46.40
2022-12-23T17:08:28.360Z,43.65
2022-12-23T17:13:33.502Z,47.40
2022-12-23T17:18:37.349Z,38.25
2022-12-23T17:23:41.260Z,43.05
2022-12-23T17:28:47.015Z,41.63
2022-12-23T17:33:51.017Z,31.23
2022-12-23T17:38:54.748Z,28.73
2022-12-23T17:44:00.812Z,31.33
2022-12-23T17:49:04.539Z,35.08
2022-12-23T17:54:08.483Z,36.67
2022-12-23T17:59:13.625Z,41.80
2022-12-23T18:04:17.618Z,35.08
2022-12-23T18:09:21.411Z,50.78
2022-12-23T18:14:28.454Z,64.47
2022-12-23T18:19:32.813Z,61.45
2022-12-23T18:24:36.421Z,66.05
2022-12-23T18:29:41.640Z,58.67
2022-12-23T18:34:45.441Z,59.20
2022-12-23T18:39:49.666Z,56.30
2022-12-23T18:44:55.151Z,52.33
2022-12-23T18:49:58.973Z,71.75
2022-12-23T18:55:02.827Z,50.08
2022-12-23T19:00:13.215Z,59.22
2022-12-23T19:05:19.030Z,65.63
2022-12-23T19:10:26.075Z,50.00
2022-12-23T19:15:32.494Z,43.40
2022-12-23T19:20:36.291Z,57.28
2022-12-23T19:25:42.309Z,54.42
2022-12-23T19:30:47.484Z,40.97
2022-12-23T19:35:51.504Z,49.97
2022-12-23T19:40:59.179Z,50.72
2022-12-23T19:46:06.301Z,55.25
2022-12-23T19:51:12.350Z,45.60
2022-12-23T19:56:21.064Z,45.70
2022-12-23T20:01:27.669Z,54.72
2022-12-23T20:06:34.341Z,48.88
2022-12-23T20:11:39.721Z,40.63
2022-12-23T20:16:45.962Z,57.00
2022-12-23T20:21:50.140Z,44.92
2022-12-23T20:26:53.883Z,42.75
2022-12-23T20:31:58.927Z,36.03
2022-12-23T20:37:04.848Z,37.95
2022-12-23T20:42:08.703Z,31.23
2022-12-23T20:47:13.897Z,28.23
2022-12-23T20:52:17.823Z,27.30
2022-12-23T20:57:21.535Z,22.10
2022-12-23T21:02:26.980Z,31.17
2022-12-23T21:07:30.667Z,21.73
2022-12-23T21:12:34.577Z,22.35
2022-12-23T21:17:39.796Z,27.58
2022-12-23T21:22:43.401Z,53.63
2022-12-23T21:27:46.977Z,42.25
2022-12-23T21:32:53.088Z,38.33
2022-12-23T21:37:56.795Z,43.30
2022-12-23T21:43:05.365Z,41.95
2022-12-23T21:48:13.419Z,31.08
2022-12-23T21:53:16.923Z,37.28
2022-12-23T21:58:20.836Z,30.42
2022-12-23T22:03:27.163Z,29.67
2022-12-23T22:08:30.796Z,33.00
2022-12-23T22:13:34.388Z,31.70
2022-12-23T22:18:39.993Z,37.65
2022-12-23T22:23:44.199Z,31.35
2022-12-23T22:28:48.108Z,34.85
2022-12-23T22:33:53.001Z,38.50
2022-12-23T22:38:58.714Z,34.95
2022-12-23T22:44:02.335Z,35.17
2022-12-23T22:49:07.329Z,46.20
2022-12-23T22:54:11.435Z,33.90
2022-12-23T22:59:21.609Z,41.47
2022-12-23T23:04:26.501Z,40.88
2022-12-23T23:09:30.113Z,32.88
2022-12-23T23:14:52.402Z,38.72
2022-12-23T23:19:57.409Z,31.42
2022-12-23T23:25:00.934Z,32.97
2022-12-23T23:30:04.970Z,33.83
2022-12-23T23:35:11.096Z,35.13
2022-12-23T23:40:14.977Z,45.47
2022-12-23T23:45:18.495Z,37.97
2022-12-23T23:50:24.064Z,27.83
2022-12-23T23:55:27.630Z,38.92
